createdAt,value
2019-04-10T00:00:35.087Z,7.42
2019-04-10T00:03:04.116Z,7.37
2019-04-10T00:05:32.566Z,7.36
2019-04-10T00:08:01.864Z,7.36
2019-04-10T00:10:30.418Z,7.34
2019-04-10T00:12:58.768Z,7.27
2019-04-10T00:15:27.074Z,7.25
2019-04-10T00:17:55.680Z,7.19
2019-04-10T00:20:24.592Z,7.16
2019-04-10T00:22:52.854Z,7.14
2019-04-10T00:25:21.156Z,7.13
2019-04-10T00:27:50.700Z,7.09
2019-04-10T00:30:19.337Z,7.04
2019-04-10T00:32:48.082Z,7.00
2019-04-10T00:35:16.452Z,6.95
2019-04-10T00:37:44.995Z,6.92
2019-04-10T00:40:13.498Z,6.88
2019-04-10T00:42:41.818Z,6.84
2019-04-10T00:45:11.260Z,6.79
2019-04-10T00:47:39.704Z,6.70
2019-04-10T00:50:08.496Z,6.63
2019-04-10T00:52:37.180Z,6.61
2019-04-10T00:55:06.041Z,6.58
2019-04-10T00:57:34.366Z,6.54
2019-04-10T01:00:02.675Z,6.53
2019-04-10T01:02:30.991Z,6.47
2019-04-10T01:04:59.292Z,6.45
2019-04-10T01:07:36.511Z,6.41
2019-04-10T01:09:57.715Z,6.36
2019-04-10T01:12:26.281Z,6.34
2019-04-10T01:14:54.595Z,6.35
2019-04-10T01:17:22.907Z,6.34
2019-04-10T01:19:52.265Z,6.28
2019-04-10T01:22:21.232Z,6.30
2019-04-10T01:24:50.204Z,6.28
2019-04-10T01:27:18.588Z,6.22
2019-04-10T01:29:46.913Z,6.21
2019-04-10T01:32:15.445Z,6.17
2019-04-10T01:34:43.781Z,6.08
2019-04-10T01:37:12.419Z,6.03
2019-04-10T01:39:40.675Z,6.00
2019-04-10T01:42:08.993Z,5.98
2019-04-10T01:44:37.308Z,5.94
2019-04-10T01:47:06.683Z,5.89
2019-04-10T01:49:35.008Z,5.86
2019-04-10T01:52:03.335Z,5.82
2019-04-10T01:54:31.658Z,5.76
2019-04-10T01:56:59.976Z,5.74
2019-04-10T01:59:30.381Z,5.66
2019-04-10T02:02:00.994Z,5.63
2019-04-10T02:04:29.329Z,5.61
2019-04-10T02:06:58.001Z,5.55
2019-04-10T02:09:27.525Z,5.55
2019-04-10T02:11:56.514Z,5.52
2019-04-10T02:14:25.165Z,5.51
2019-04-10T02:16:54.906Z,5.42
2019-04-10T02:19:23.874Z,5.38
2019-04-10T02:21:52.282Z,5.35
2019-04-10T02:24:20.612Z,5.30
2019-04-10T02:26:49.842Z,5.23
2019-04-10T02:29:18.077Z,5.14
2019-04-10T02:31:48.338Z,5.13
2019-04-10T02:34:17.300Z,5.08
2019-04-10T02:36:47.423Z,5.09
2019-04-10T02:39:25.601Z,5.03
2019-04-10T02:41:47.604Z,5.01
2019-04-10T02:44:16.436Z,4.96
2019-04-10T02:46:45.189Z,4.98
2019-04-10T02:49:14.322Z,4.93
2019-04-10T02:51:43.290Z,4.89
2019-04-10T02:54:13.596Z,4.89
2019-04-10T02:56:43.238Z,4.86
2019-04-10T02:59:13.143Z,4.78
2019-04-10T03:01:41.730Z,4.74
2019-04-10T03:04:11.873Z,4.68
2019-04-10T03:06:40.021Z,4.70
2019-04-10T03:09:28.171Z,4.68
2019-04-10T03:11:39.673Z,4.64
2019-04-10T03:14:08.140Z,4.61
2019-04-10T03:16:37.514Z,4.60
2019-04-10T03:19:05.914Z,4.56
2019-04-10T03:21:35.353Z,4.53
2019-04-10T03:24:04.297Z,4.47
2019-04-10T03:26:32.648Z,4.45
2019-04-10T03:29:01.008Z,4.38
2019-04-10T03:31:30.137Z,4.34
2019-04-10T03:34:13.254Z,4.32
2019-04-10T03:36:41.862Z,4.27
2019-04-10T03:39:10.627Z,4.27
2019-04-10T03:41:40.156Z,4.30
2019-04-10T03:44:08.417Z,4.24
2019-04-10T03:46:38.737Z,4.20
2019-04-10T03:49:07.074Z,4.18
2019-04-10T03:51:35.399Z,4.15
2019-04-10T03:54:04.731Z,4.14
2019-04-10T03:56:33.962Z,4.09
2019-04-10T03:59:02.382Z,4.09
2019-04-10T04:01:31.923Z,4.10
2019-04-10T04:04:01.391Z,4.05
2019-04-10T04:06:29.863Z,3.99
2019-04-10T04:09:06.649Z,3.96
2019-04-10T04:11:29.331Z,3.97
2019-04-10T04:13:57.788Z,3.93
2019-04-10T04:16:26.871Z,3.88
2019-04-10T04:18:55.227Z,3.84
2019-04-10T04:21:23.762Z,3.84
2019-04-10T04:23:53.269Z,3.77
2019-04-10T04:26:23.174Z,3.70
2019-04-10T04:28:51.775Z,3.71
2019-04-10T04:31:20.250Z,3.71
2019-04-10T04:33:48.971Z,3.67
2019-04-10T04:36:18.252Z,3.67
2019-04-10T04:38:46.663Z,3.66
2019-04-10T04:41:15.430Z,3.65
2019-04-10T04:43:45.988Z,3.59
2019-04-10T04:46:14.119Z,3.66
2019-04-10T04:48:43.329Z,3.71
2019-04-10T04:51:11.737Z,3.70
2019-04-10T04:53:40.045Z,3.64
2019-04-10T04:56:09.409Z,3.58
2019-04-10T04:58:38.175Z,3.59
2019-04-10T05:01:06.584Z,3.60
2019-04-10T05:03:35.423Z,3.60
2019-04-10T05:06:03.880Z,3.55
2019-04-10T05:08:32.388Z,3.51
2019-04-10T05:11:00.697Z,3.50
2019-04-10T05:13:28.996Z,3.55
2019-04-10T05:15:57.647Z,3.63
2019-04-10T05:18:25.953Z,3.67
2019-04-10T05:20:54.734Z,3.71
2019-04-10T05:23:23.131Z,3.71
2019-04-10T05:25:51.937Z,3.81
2019-04-10T05:28:20.560Z,3.97
2019-04-10T05:30:48.847Z,4.07
2019-04-10T05:33:17.264Z,4.20
2019-04-10T05:35:45.584Z,4.40
2019-04-10T05:38:14.531Z,4.34
2019-04-10T05:40:44.180Z,4.23
2019-04-10T05:43:13.446Z,4.15
2019-04-10T05:45:42.240Z,4.10
2019-04-10T05:48:11.107Z,4.03
2019-04-10T05:50:39.877Z,4.07
2019-04-10T05:53:08.546Z,4.07
2019-04-10T05:55:36.914Z,4.11
2019-04-10T05:58:05.500Z,4.11
2019-04-10T06:00:34.579Z,4.17
2019-04-10T06:03:03.945Z,4.29
2019-04-10T06:05:32.676Z,4.36
2019-04-10T06:08:01.348Z,4.42
2019-04-10T06:10:30.141Z,4.51
2019-04-10T06:12:59.185Z,4.61
2019-04-10T06:15:28.723Z,4.68
2019-04-10T06:17:57.037Z,4.56
2019-04-10T06:20:25.607Z,4.46
2019-04-10T06:22:54.905Z,4.46
2019-04-10T06:25:24.691Z,4.50
2019-04-10T06:27:53.351Z,4.55
2019-04-10T06:30:21.716Z,4.58
2019-04-10T06:32:50.012Z,4.63
2019-04-10T06:35:19.695Z,4.71
2019-04-10T06:37:48.406Z,4.70
2019-04-10T06:40:21.103Z,4.75
2019-04-10T06:42:50.801Z,4.81
2019-04-10T06:45:17.781Z,4.83
2019-04-10T06:47:46.650Z,4.84
2019-04-10T06:50:15.336Z,4.87
2019-04-10T06:52:43.633Z,4.95
2019-04-10T06:55:13.222Z,5.01
2019-04-10T06:57:50.928Z,5.04
2019-04-10T07:00:15.241Z,4.91
2019-04-10T07:02:44.361Z,4.93
2019-04-10T07:05:13.864Z,4.91
2019-04-10T07:07:51.361Z,4.98
2019-04-10T07:10:22.536Z,4.95
2019-04-10T07:12:43.881Z,5.08
2019-04-10T07:15:12.528Z,5.20
2019-04-10T07:17:41.869Z,5.19
2019-04-10T07:20:11.005Z,5.19
2019-04-10T07:22:45.161Z,5.23
2019-04-10T07:25:12.462Z,5.21
2019-04-10T07:27:41.442Z,5.28
2019-04-10T07:30:10.161Z,5.39
2019-04-10T07:32:41.284Z,5.44
2019-04-10T07:35:10.916Z,5.51
2019-04-10T07:37:40.381Z,5.55
2019-04-10T07:40:08.899Z,5.61
2019-04-10T07:42:40.279Z,5.67
2019-04-10T07:45:09.467Z,5.76
2019-04-10T07:47:38.149Z,5.93
2019-04-10T07:50:08.795Z,6.01
2019-04-10T07:52:37.400Z,6.09
2019-04-10T07:55:06.610Z,6.26
2019-04-10T07:57:36.270Z,6.26
2019-04-10T08:00:07.355Z,6.19
2019-04-10T08:02:35.935Z,6.14
2019-04-10T08:05:05.782Z,6.10
2019-04-10T08:07:36.320Z,6.14
2019-04-10T08:10:06.253Z,6.20
2019-04-10T08:12:42.441Z,6.24
2019-04-10T08:15:06.971Z,6.35
2019-04-10T08:17:36.734Z,6.49
2019-04-10T08:20:05.924Z,6.53
2019-04-10T08:22:34.983Z,6.67
2019-04-10T08:25:04.653Z,6.71
2019-04-10T08:27:34.126Z,6.69
2019-04-10T08:30:03.318Z,6.78
2019-04-10T08:32:32.227Z,6.94
2019-04-10T08:35:01.659Z,7.08
2019-04-10T08:37:29.972Z,7.15
2019-04-10T08:39:59.045Z,7.17
2019-04-10T08:42:27.340Z,7.16
2019-04-10T08:44:56.370Z,7.21
2019-04-10T08:47:24.933Z,7.32
2019-04-10T08:49:53.216Z,7.39
2019-04-10T08:52:22.089Z,7.49
2019-04-10T08:54:51.210Z,7.51
2019-04-10T08:57:19.832Z,7.53
2019-04-10T08:59:48.413Z,7.56
2019-04-10T09:02:18.005Z,7.62
2019-04-10T09:04:46.812Z,7.71
2019-04-10T09:07:15.861Z,7.76
2019-04-10T09:09:44.199Z,7.76
2019-04-10T09:12:13.603Z,7.82
2019-04-10T09:14:41.969Z,7.98
2019-04-10T09:17:11.204Z,8.14
2019-04-10T09:19:40.244Z,8.26
2019-04-10T09:22:08.674Z,8.32
2019-04-10T09:24:37.003Z,8.29
2019-04-10T09:27:05.696Z,8.34
2019-04-10T09:29:34.030Z,8.39
2019-04-10T09:32:02.550Z,8.53
2019-04-10T09:34:31.821Z,8.61
2019-04-10T09:37:00.150Z,8.68
2019-04-10T09:39:29.520Z,8.68
2019-04-10T09:41:58.735Z,8.79
2019-04-10T09:44:27.822Z,8.80
2019-04-10T09:46:56.511Z,8.82
2019-04-10T09:49:33.803Z,8.77
2019-04-10T09:51:54.866Z,8.74
2019-04-10T09:54:23.997Z,8.83
2019-04-10T09:56:52.831Z,8.89
2019-04-10T09:59:31.318Z,8.99
2019-04-10T10:01:51.432Z,9.10
2019-04-10T10:04:19.755Z,9.12
2019-04-10T10:06:48.075Z,9.25
2019-04-10T10:09:17.545Z,9.31
2019-04-10T10:11:46.922Z,9.30
2019-04-10T10:14:15.278Z,9.40
2019-04-10T10:16:44.219Z,9.56
2019-04-10T10:19:12.663Z,9.54
2019-04-10T10:21:40.980Z,9.39
2019-04-10T10:24:09.266Z,9.54
2019-04-10T10:26:37.924Z,9.55
2019-04-10T10:29:06.650Z,9.52
2019-04-10T10:31:36.076Z,9.57
2019-04-10T10:34:04.397Z,9.77
2019-04-10T10:36:39.553Z,9.98
2019-04-10T10:39:10.596Z,10.05
2019-04-10T10:41:34.748Z,10.16
2019-04-10T10:44:03.134Z,10.20
2019-04-10T10:46:31.689Z,10.28
2019-04-10T10:49:00.132Z,10.39
2019-04-10T10:51:28.968Z,10.37
2019-04-10T10:54:00.102Z,10.50
2019-04-10T10:56:28.627Z,10.57
2019-04-10T10:58:58.916Z,10.62
2019-04-10T11:01:27.590Z,10.63
2019-04-10T11:03:56.362Z,10.49
2019-04-10T11:06:24.810Z,10.57
2019-04-10T11:08:53.748Z,10.76
2019-04-10T11:11:22.578Z,10.93
2019-04-10T11:13:50.983Z,10.82
2019-04-10T11:16:19.402Z,10.89
2019-04-10T11:18:48.441Z,10.85
2019-04-10T11:21:16.933Z,10.66
2019-04-10T11:23:45.250Z,10.73
2019-04-10T11:26:20.017Z,10.61
2019-04-10T11:28:45.608Z,10.53
2019-04-10T11:31:15.902Z,10.55
2019-04-10T11:33:49.807Z,10.43
2019-04-10T11:36:15.220Z,10.42
2019-04-10T11:38:45.348Z,10.47
2019-04-10T11:41:14.994Z,10.60
2019-04-10T11:43:44.605Z,10.65
2019-04-10T11:46:13.700Z,10.73
2019-04-10T11:48:45.429Z,10.74
2019-04-10T11:56:12.657Z,10.67
2019-04-10T11:58:49.482Z,10.69
2019-04-10T12:01:12.905Z,10.63
2019-04-10T12:03:46.993Z,10.59
2019-04-10T12:06:13.173Z,10.68
2019-04-10T12:11:15.520Z,10.84
2019-04-10T12:13:42.731Z,10.88
2019-04-10T12:16:11.138Z,10.91
2019-04-10T12:18:40.485Z,10.98
2019-04-10T12:21:09.441Z,10.91
2019-04-10T12:23:38.142Z,10.84
2019-04-10T12:26:07.511Z,10.81
2019-04-10T12:28:36.140Z,10.90
2019-04-10T12:31:05.904Z,10.98
2019-04-10T12:33:34.290Z,11.02
2019-04-10T12:36:02.663Z,10.99
2019-04-10T12:38:31.885Z,10.94
2019-04-10T12:41:01.351Z,10.97
2019-04-10T12:43:29.808Z,11.02
2019-04-10T12:45:58.110Z,11.03
2019-04-10T12:48:26.444Z,11.03
2019-04-10T12:50:55.159Z,11.18
2019-04-10T12:53:23.635Z,11.18
2019-04-10T12:55:51.941Z,10.96
2019-04-10T12:58:20.694Z,11.03
2019-04-10T13:00:50.594Z,11.08
2019-04-10T13:03:18.952Z,11.21
2019-04-10T13:05:47.330Z,11.15
2019-04-10T13:08:21.872Z,11.03
2019-04-10T13:10:47.614Z,11.01
2019-04-10T13:13:16.311Z,11.14
2019-04-10T13:15:45.573Z,11.25
2019-04-10T13:18:14.337Z,11.30
2019-04-10T13:20:42.649Z,11.34
2019-04-10T13:23:10.965Z,11.33
2019-04-10T13:25:39.283Z,11.14
2019-04-10T13:28:08.733Z,11.08
2019-04-10T13:30:46.804Z,11.14
2019-04-10T13:33:08.691Z,11.19
2019-04-10T13:35:37.876Z,11.27
2019-04-10T13:38:06.767Z,11.28
2019-04-10T13:40:35.320Z,11.41
2019-04-10T13:43:03.794Z,11.37
2019-04-10T13:45:32.276Z,11.21
2019-04-10T13:48:00.933Z,11.21
2019-04-10T13:50:29.252Z,11.09
2019-04-10T13:52:57.598Z,11.16
2019-04-10T13:55:26.365Z,11.25
2019-04-10T13:57:55.043Z,11.25
2019-04-10T14:00:43.083Z,11.28
2019-04-10T14:03:12.262Z,11.28
2019-04-10T14:05:41.233Z,11.28
2019-04-10T14:08:10.469Z,11.29
2019-04-10T14:10:41.195Z,11.16
2019-04-10T14:13:09.401Z,11.11
2019-04-10T14:15:37.714Z,11.24
2019-04-10T14:18:08.244Z,11.28
2019-04-10T14:20:37.566Z,11.25
2019-04-10T14:23:08.438Z,11.17
2019-04-10T14:25:42.088Z,11.14
2019-04-10T14:28:11.032Z,11.22
2019-04-10T14:30:45.283Z,11.07
2019-04-10T14:33:14.889Z,11.08
2019-04-10T14:35:43.237Z,11.02
2019-04-10T14:38:11.631Z,11.02
2019-04-10T14:40:40.217Z,11.06
2019-04-10T14:43:08.605Z,11.17
2019-04-10T14:45:37.429Z,11.29
2019-04-10T14:48:05.987Z,11.30
2019-04-10T14:50:34.719Z,11.24
2019-04-10T14:53:03.514Z,11.25
2019-04-10T14:55:31.973Z,11.20
2019-04-10T14:58:01.347Z,11.19
2019-04-10T15:00:31.321Z,11.23
2019-04-10T15:03:00.133Z,11.20
2019-04-10T15:05:28.551Z,11.21
2019-04-10T15:07:57.516Z,11.16
2019-04-10T15:10:25.851Z,11.16
2019-04-10T15:13:02.544Z,11.15
2019-04-10T15:15:24.482Z,11.30
2019-04-10T15:17:54.062Z,11.31
2019-04-10T15:20:22.859Z,11.28
2019-04-10T15:22:51.307Z,11.31
2019-04-10T15:25:19.606Z,11.37
2019-04-10T15:27:47.926Z,11.44
2019-04-10T15:30:16.295Z,11.38
2019-04-10T15:32:45.405Z,11.27
2019-04-10T15:35:14.270Z,11.23
2019-04-10T15:37:42.582Z,11.09
2019-04-10T15:40:18.467Z,11.03
2019-04-10T15:42:41.057Z,11.03
2019-04-10T15:45:10.610Z,11.04
2019-04-10T15:47:49.244Z,11.01
2019-04-10T15:50:10.276Z,11.02
2019-04-10T15:52:39.681Z,11.11
2019-04-10T15:55:08.263Z,11.15
2019-04-10T15:57:46.997Z,11.13
2019-04-10T16:00:10.779Z,11.15
2019-04-10T16:02:39.103Z,11.05
2019-04-10T16:05:09.041Z,10.98
2019-04-10T16:07:38.285Z,10.91
2019-04-10T16:10:28.874Z,10.88
2019-04-10T16:13:04.605Z,10.85
2019-04-10T16:15:40.827Z,10.84
2019-04-10T16:18:13.672Z,10.75
2019-04-10T16:20:43.226Z,10.68
2019-04-10T16:23:28.323Z,10.60
2019-04-10T16:25:55.357Z,10.59
2019-04-10T16:28:23.848Z,10.58
2019-04-10T16:30:52.245Z,10.60
2019-04-10T16:33:21.103Z,10.57
2019-04-10T16:35:49.384Z,10.59
2019-04-10T16:38:17.688Z,10.55
2019-04-10T16:40:46.075Z,10.55
2019-04-10T16:43:14.453Z,10.51
2019-04-10T16:45:43.189Z,10.49
2019-04-10T16:48:11.584Z,10.49
2019-04-10T16:50:39.869Z,10.47
2019-04-10T16:53:08.180Z,10.48
2019-04-10T16:55:36.703Z,10.46
2019-04-10T16:58:05.392Z,10.44
2019-04-10T17:00:34.076Z,10.36
2019-04-10T17:03:02.670Z,10.29
2019-04-10T17:05:33.600Z,10.27
2019-04-10T17:08:01.004Z,10.27
2019-04-10T17:10:29.565Z,10.23
2019-04-10T17:12:58.292Z,10.20
2019-04-10T17:15:28.056Z,10.15
2019-04-10T17:17:56.933Z,10.11
2019-04-10T17:20:26.657Z,10.09
2019-04-10T17:22:56.350Z,10.08
2019-04-10T17:25:24.750Z,10.06
2019-04-10T17:27:54.130Z,10.02
2019-04-10T17:30:23.951Z,10.00
2019-04-10T17:32:52.552Z,9.94
2019-04-10T17:35:21.325Z,9.86
2019-04-10T17:37:50.036Z,9.84
2019-04-10T17:40:30.061Z,9.77
2019-04-10T17:42:48.899Z,9.74
2019-04-10T17:45:18.424Z,9.69
2019-04-10T17:47:47.209Z,9.66
2019-04-10T17:50:16.446Z,9.62
2019-04-10T17:52:45.209Z,9.59
2019-04-10T17:55:13.607Z,9.56
2019-04-10T17:57:44.619Z,9.52
2019-04-10T18:00:22.984Z,9.50
2019-04-10T18:02:51.407Z,9.44
2019-04-10T18:05:20.366Z,9.41
2019-04-10T18:07:48.788Z,9.37
2019-04-10T18:10:17.166Z,9.32
2019-04-10T18:12:46.104Z,9.28
2019-04-10T18:15:15.684Z,9.22
2019-04-10T18:17:44.051Z,9.16
2019-04-10T18:20:12.380Z,9.10
2019-04-10T18:22:40.769Z,9.05
2019-04-10T18:25:09.699Z,9.01
2019-04-10T18:27:38.643Z,8.98
2019-04-10T18:30:07.877Z,8.95
2019-04-10T18:32:36.236Z,8.92
2019-04-10T18:35:06.774Z,8.88
2019-04-10T18:37:35.398Z,8.84
2019-04-10T18:40:05.362Z,8.80
2019-04-10T18:42:33.659Z,8.74
2019-04-10T18:45:02.012Z,8.69
2019-04-10T18:47:32.395Z,8.66
2019-04-10T18:50:01.156Z,8.63
2019-04-10T18:52:30.300Z,8.61
2019-04-10T18:54:58.612Z,8.56
2019-04-10T18:57:26.916Z,8.50
2019-04-10T18:59:56.836Z,8.46
2019-04-10T19:02:30.427Z,8.44
2019-04-10T19:05:19.383Z,8.39
2019-04-10T19:07:48.214Z,8.33
2019-04-10T19:10:17.802Z,8.29
2019-04-10T19:12:46.570Z,8.25
2019-04-10T19:15:14.992Z,8.21
2019-04-10T19:17:43.564Z,8.17
2019-04-10T19:20:11.890Z,8.15
2019-04-10T19:22:40.276Z,8.12
2019-04-10T19:25:08.797Z,8.08
2019-04-10T19:27:37.334Z,8.07
2019-04-10T19:30:08.394Z,8.04
2019-04-10T19:32:37.515Z,8.02
2019-04-10T19:35:07.141Z,7.99
2019-04-10T19:37:36.630Z,7.97
2019-04-10T19:40:07.132Z,7.91
2019-04-10T19:42:35.740Z,7.87
2019-04-10T19:45:06.091Z,7.82
2019-04-10T19:47:34.728Z,7.79
2019-04-10T19:50:03.477Z,7.76
2019-04-10T19:52:32.837Z,7.72
2019-04-10T19:55:01.579Z,7.70
2019-04-10T19:57:31.022Z,7.66
2019-04-10T20:00:00.038Z,7.63
2019-04-10T20:02:28.368Z,7.58
2019-04-10T20:04:56.970Z,7.53
2019-04-10T20:07:25.570Z,7.52
2019-04-10T20:09:54.917Z,7.49
2019-04-10T20:12:24.457Z,7.45
2019-04-10T20:14:53.342Z,7.41
2019-04-10T20:17:22.007Z,7.41
2019-04-10T20:19:51.783Z,7.37
2019-04-10T20:22:20.921Z,7.34
2019-04-10T20:24:50.312Z,7.35
2019-04-10T20:27:20.223Z,7.42
2019-04-10T20:29:48.751Z,7.47
2019-04-10T20:32:17.693Z,7.41
2019-04-10T20:34:45.978Z,7.35
2019-04-10T20:37:14.520Z,7.29
2019-04-10T20:39:42.875Z,7.26
2019-04-10T20:42:11.177Z,7.19
2019-04-10T20:44:39.468Z,7.17
2019-04-10T20:47:08.801Z,7.11
2019-04-10T20:49:38.435Z,7.06
2019-04-10T20:52:06.803Z,7.02
2019-04-10T20:54:35.384Z,6.99
2019-04-10T20:57:04.963Z,6.95
2019-04-10T20:59:34.976Z,6.93
2019-04-10T21:02:04.171Z,6.90
2019-04-10T21:04:33.759Z,6.82
2019-04-10T21:07:02.929Z,6.87
2019-04-10T21:09:32.057Z,6.86
2019-04-10T21:12:08.054Z,6.81
2019-04-10T21:14:31.644Z,6.79
2019-04-10T21:17:00.450Z,6.75
2019-04-10T21:19:29.067Z,6.71
2019-04-10T21:21:57.565Z,6.69
2019-04-10T21:24:25.891Z,6.66
2019-04-10T21:26:54.843Z,6.62
2019-04-10T21:29:25.496Z,6.59
2019-04-10T21:31:59.019Z,6.58
2019-04-10T21:34:29.035Z,6.56
2019-04-10T21:36:57.599Z,6.55
2019-04-10T21:39:27.631Z,6.51
2019-04-10T21:42:09.333Z,6.49
2019-04-10T21:44:26.713Z,6.46
2019-04-10T21:46:55.142Z,6.45
2019-04-10T21:49:24.027Z,6.44
2019-04-10T21:51:52.351Z,6.41
2019-04-10T21:54:20.951Z,6.41
2019-04-10T21:56:49.437Z,6.37
2019-04-10T21:59:18.346Z,6.37
2019-04-10T22:01:48.669Z,6.34
2019-04-10T22:04:17.335Z,6.32
2019-04-10T22:06:50.001Z,6.30
2019-04-10T22:09:22.949Z,6.29
2019-04-10T22:11:55.425Z,6.25
2019-04-10T22:14:23.847Z,6.20
2019-04-10T22:16:52.590Z,6.18
2019-04-10T22:19:21.072Z,6.14
2019-04-10T22:21:50.203Z,6.10
2019-04-10T22:24:18.714Z,6.05
2019-04-10T22:26:47.019Z,6.01
2019-04-10T22:29:15.318Z,5.97
2019-04-10T22:31:43.841Z,5.95
2019-04-10T22:34:12.117Z,5.90
2019-04-10T22:36:41.468Z,5.89
2019-04-10T22:39:11.547Z,5.85
2019-04-10T22:41:40.697Z,5.83
2019-04-10T22:44:09.727Z,5.81
2019-04-10T22:46:38.410Z,5.76
2019-04-10T22:49:06.803Z,5.75
2019-04-10T22:51:35.573Z,5.71
2019-04-10T22:54:04.139Z,5.67
2019-04-10T22:56:33.665Z,5.66
2019-04-10T22:59:02.331Z,5.60
2019-04-10T23:01:31.325Z,5.54
2019-04-10T23:04:00.010Z,5.53
2019-04-10T23:06:29.272Z,5.48
2019-04-10T23:08:58.071Z,5.46
2019-04-10T23:11:31.683Z,5.42
2019-04-10T23:13:56.429Z,5.42
2019-04-10T23:16:24.743Z,5.36
2019-04-10T23:18:53.931Z,5.32
2019-04-10T23:21:22.863Z,5.32
2019-04-10T23:23:51.603Z,5.28
2019-04-10T23:26:20.774Z,5.20
2019-04-10T23:28:50.161Z,5.19
2019-04-10T23:31:18.845Z,5.17
2019-04-10T23:33:48.159Z,5.13
2019-04-10T23:36:16.650Z,5.11
2019-04-10T23:38:45.890Z,5.11
2019-04-10T23:41:14.264Z,5.09
2019-04-10T23:43:42.583Z,5.06
2019-04-10T23:46:11.781Z,5.04
2019-04-10T23:48:41.213Z,5.01
2019-04-10T23:51:10.584Z,4.98
2019-04-10T23:53:39.066Z,4.99
2019-04-10T23:56:07.356Z,5.01
2019-04-10T23:58:35.687Z,4.99
